sensor_id;sensor_type;location;lat;lon;timestamp;P1;durP1;ratioP1;P2;durP2;ratioP2
52322;SDS011;38263;52.920;6.238;2023-04-19T00:01:27;11.00;;;8.00;;
52322;SDS011;38263;52.920;6.238;2023-04-19T00:03:53;12.52;;;8.15;;
52322;SDS011;38263;52.920;6.238;2023-04-19T00:06:20;13.32;;;7.85;;
52322;SDS011;38263;52.920;6.238;2023-04-19T00:08:47;11.30;;;8.05;;
52322;SDS011;38263;52.920;6.238;2023-04-19T00:11:12;12.23;;;8.02;;
52322;SDS011;38263;52.920;6.238;2023-04-19T00:13:38;13.85;;;7.90;;
52322;SDS011;38263;52.920;6.238;2023-04-19T00:16:04;12.45;;;9.05;;
52322;SDS011;38263;52.920;6.238;2023-04-19T00:18:30;12.57;;;7.97;;
52322;SDS011;38263;52.920;6.238;2023-04-19T00:20:56;10.93;;;7.80;;
52322;SDS011;38263;52.920;6.238;2023-04-19T00:23:22;13.93;;;8.02;;
52322;SDS011;38263;52.920;6.238;2023-04-19T00:25:49;13.68;;;7.90;;
52322;SDS011;38263;52.920;6.238;2023-04-19T00:28:15;11.13;;;8.00;;
52322;SDS011;38263;52.920;6.238;2023-04-19T00:30:41;10.38;;;7.47;;
52322;SDS011;38263;52.920;6.238;2023-04-19T00:33:07;9.75;;;7.05;;
52322;SDS011;38263;52.920;6.238;2023-04-19T00:35:39;12.55;;;7.78;;
52322;SDS011;38263;52.920;6.238;2023-04-19T00:38:06;11.43;;;7.25;;
52322;SDS011;38263;52.920;6.238;2023-04-19T00:40:32;12.25;;;7.00;;
52322;SDS011;38263;52.920;6.238;2023-04-19T00:42:58;14.00;;;7.88;;
52322;SDS011;38263;52.920;6.238;2023-04-19T00:45:24;10.13;;;6.78;;
52322;SDS011;38263;52.920;6.238;2023-04-19T00:47:50;11.85;;;7.72;;
52322;SDS011;38263;52.920;6.238;2023-04-19T00:50:17;10.43;;;6.75;;
52322;SDS011;38263;52.920;6.238;2023-04-19T00:52:43;13.30;;;7.78;;
52322;SDS011;38263;52.920;6.238;2023-04-19T00:55:10;13.00;;;7.55;;
52322;SDS011;38263;52.920;6.238;2023-04-19T00:57:36;9.13;;;7.00;;
52322;SDS011;38263;52.920;6.238;2023-04-19T01:00:03;12.02;;;7.70;;
52322;SDS011;38263;52.920;6.238;2023-04-19T01:02:34;9.35;;;6.85;;
52322;SDS011;38263;52.920;6.238;2023-04-19T01:05:00;9.90;;;7.28;;
52322;SDS011;38263;52.920;6.238;2023-04-19T01:07:27;10.82;;;7.53;;
52322;SDS011;38263;52.920;6.238;2023-04-19T01:09:53;11.50;;;7.55;;
52322;SDS011;38263;52.920;6.238;2023-04-19T01:12:19;9.48;;;6.95;;
52322;SDS011;38263;52.920;6.238;2023-04-19T01:14:45;11.75;;;7.07;;
52322;SDS011;38263;52.920;6.238;2023-04-19T01:17:11;9.82;;;7.13;;
52322;SDS011;38263;52.920;6.238;2023-04-19T01:19:37;12.43;;;7.82;;
52322;SDS011;38263;52.920;6.238;2023-04-19T01:22:04;9.90;;;7.55;;
52322;SDS011;38263;52.920;6.238;2023-04-19T01:24:30;10.80;;;8.07;;
52322;SDS011;38263;52.920;6.238;2023-04-19T01:26:56;11.80;;;8.05;;
52322;SDS011;38263;52.920;6.238;2023-04-19T01:29:22;12.00;;;7.32;;
52322;SDS011;38263;52.920;6.238;2023-04-19T01:31:48;12.35;;;8.20;;
52322;SDS011;38263;52.920;6.238;2023-04-19T01:34:17;10.75;;;6.60;;
52322;SDS011;38263;52.920;6.238;2023-04-19T01:36:43;10.40;;;7.03;;
52322;SDS011;38263;52.920;6.238;2023-04-19T01:39:10;10.45;;;7.00;;
52322;SDS011;38263;52.920;6.238;2023-04-19T01:41:36;12.85;;;7.88;;
52322;SDS011;38263;52.920;6.238;2023-04-19T01:44:02;9.30;;;6.88;;
52322;SDS011;38263;52.920;6.238;2023-04-19T01:46:27;10.25;;;6.30;;
52322;SDS011;38263;52.920;6.238;2023-04-19T01:48:53;9.52;;;6.90;;
52322;SDS011;38263;52.920;6.238;2023-04-19T01:51:19;10.38;;;7.20;;
52322;SDS011;38263;52.920;6.238;2023-04-19T01:53:48;11.23;;;6.88;;
52322;SDS011;38263;52.920;6.238;2023-04-19T01:56:17;11.32;;;7.32;;
52322;SDS011;38263;52.920;6.238;2023-04-19T01:58:43;11.60;;;7.18;;
52322;SDS011;38263;52.920;6.238;2023-04-19T02:01:09;10.07;;;7.07;;
52322;SDS011;38263;52.920;6.238;2023-04-19T02:03:37;12.68;;;7.57;;
52322;SDS011;38263;52.920;6.238;2023-04-19T02:06:03;12.05;;;7.60;;
52322;SDS011;38263;52.920;6.238;2023-04-19T02:08:28;12.73;;;6.93;;
52322;SDS011;38263;52.920;6.238;2023-04-19T02:10:54;13.82;;;8.80;;
52322;SDS011;38263;52.920;6.238;2023-04-19T02:13:20;13.13;;;8.15;;
52322;SDS011;38263;52.920;6.238;2023-04-19T02:15:46;12.10;;;7.60;;
52322;SDS011;38263;52.920;6.238;2023-04-19T02:18:13;10.95;;;8.60;;
52322;SDS011;38263;52.920;6.238;2023-04-19T02:20:38;12.55;;;8.38;;
52322;SDS011;38263;52.920;6.238;2023-04-19T02:23:04;11.63;;;7.85;;
52322;SDS011;38263;52.920;6.238;2023-04-19T02:25:30;12.23;;;8.32;;
52322;SDS011;38263;52.920;6.238;2023-04-19T02:27:56;11.95;;;8.80;;
52322;SDS011;38263;52.920;6.238;2023-04-19T02:30:22;14.10;;;8.90;;
52322;SDS011;38263;52.920;6.238;2023-04-19T02:32:48;14.88;;;8.45;;
52322;SDS011;38263;52.920;6.238;2023-04-19T02:35:14;15.50;;;9.30;;
52322;SDS011;38263;52.920;6.238;2023-04-19T02:37:41;13.50;;;9.38;;
52322;SDS011;38263;52.920;6.238;2023-04-19T02:40:07;15.57;;;9.65;;
52322;SDS011;38263;52.920;6.238;2023-04-19T02:42:33;15.18;;;8.73;;
52322;SDS011;38263;52.920;6.238;2023-04-19T02:44:58;15.07;;;8.65;;
52322;SDS011;38263;52.920;6.238;2023-04-19T02:47:24;13.15;;;8.25;;
52322;SDS011;38263;52.920;6.238;2023-04-19T02:49:50;13.57;;;9.52;;
52322;SDS011;38263;52.920;6.238;2023-04-19T02:52:16;15.65;;;9.85;;
52322;SDS011;38263;52.920;6.238;2023-04-19T02:54:42;16.42;;;9.48;;
52322;SDS011;38263;52.920;6.238;2023-04-19T02:57:08;13.00;;;8.77;;
52322;SDS011;38263;52.920;6.238;2023-04-19T02:59:34;15.43;;;9.50;;
52322;SDS011;38263;52.920;6.238;2023-04-19T03:02:00;13.70;;;8.48;;
52322;SDS011;38263;52.920;6.238;2023-04-19T03:04:26;14.20;;;9.55;;
52322;SDS011;38263;52.920;6.238;2023-04-19T03:06:52;12.57;;;9.05;;
52322;SDS011;38263;52.920;6.238;2023-04-19T03:09:19;16.10;;;9.18;;
52322;SDS011;38263;52.920;6.238;2023-04-19T03:11:44;17.17;;;9.68;;
52322;SDS011;38263;52.920;6.238;2023-04-19T03:14:10;15.23;;;9.10;;
52322;SDS011;38263;52.920;6.238;2023-04-19T03:16:36;14.20;;;8.93;;
52322;SDS011;38263;52.920;6.238;2023-04-19T03:19:02;13.75;;;8.93;;
52322;SDS011;38263;52.920;6.238;2023-04-19T03:21:28;14.75;;;9.02;;
52322;SDS011;38263;52.920;6.238;2023-04-19T03:23:54;15.45;;;9.38;;
52322;SDS011;38263;52.920;6.238;2023-04-19T03:26:20;11.82;;;8.63;;
52322;SDS011;38263;52.920;6.238;2023-04-19T03:28:46;12.50;;;8.38;;
52322;SDS011;38263;52.920;6.238;2023-04-19T03:31:12;13.57;;;8.77;;
52322;SDS011;38263;52.920;6.238;2023-04-19T03:33:38;16.73;;;9.20;;
52322;SDS011;38263;52.920;6.238;2023-04-19T03:36:04;13.82;;;9.27;;
52322;SDS011;38263;52.920;6.238;2023-04-19T03:38:31;16.15;;;9.13;;
52322;SDS011;38263;52.920;6.238;2023-04-19T03:40:57;12.90;;;9.65;;
52322;SDS011;38263;52.920;6.238;2023-04-19T03:43:23;14.68;;;8.90;;
52322;SDS011;38263;52.920;6.238;2023-04-19T03:45:49;16.20;;;8.52;;
52322;SDS011;38263;52.920;6.238;2023-04-19T03:48:15;14.07;;;8.27;;
52322;SDS011;38263;52.920;6.238;2023-04-19T03:50:41;16.02;;;8.55;;
52322;SDS011;38263;52.920;6.238;2023-04-19T03:53:07;14.40;;;8.32;;
52322;SDS011;38263;52.920;6.238;2023-04-19T03:55:33;14.30;;;8.10;;
52322;SDS011;38263;52.920;6.238;2023-04-19T03:57:59;14.48;;;9.18;;
52322;SDS011;38263;52.920;6.238;2023-04-19T04:00:25;12.27;;;7.95;;
52322;SDS011;38263;52.920;6.238;2023-04-19T04:02:51;11.80;;;7.75;;
52322;SDS011;38263;52.920;6.238;2023-04-19T04:05:17;12.95;;;7.38;;
52322;SDS011;38263;52.920;6.238;2023-04-19T04:07:43;10.95;;;7.32;;
52322;SDS011;38263;52.920;6.238;2023-04-19T04:10:09;15.18;;;8.05;;
52322;SDS011;38263;52.920;6.238;2023-04-19T04:12:35;9.93;;;7.60;;
52322;SDS011;38263;52.920;6.238;2023-04-19T04:15:01;15.68;;;8.27;;
52322;SDS011;38263;52.920;6.238;2023-04-19T04:17:27;14.25;;;7.78;;
52322;SDS011;38263;52.920;6.238;2023-04-19T04:19:53;11.07;;;7.00;;
52322;SDS011;38263;52.920;6.238;2023-04-19T04:22:19;12.93;;;7.75;;
52322;SDS011;38263;52.920;6.238;2023-04-19T04:24:45;11.13;;;7.82;;
52322;SDS011;38263;52.920;6.238;2023-04-19T04:27:11;13.10;;;7.68;;
52322;SDS011;38263;52.920;6.238;2023-04-19T04:29:38;14.27;;;7.40;;
52322;SDS011;38263;52.920;6.238;2023-04-19T04:32:05;11.00;;;7.78;;
52322;SDS011;38263;52.920;6.238;2023-04-19T04:34:34;12.98;;;6.80;;
52322;SDS011;38263;52.920;6.238;2023-04-19T04:37:01;11.48;;;7.53;;
52322;SDS011;38263;52.920;6.238;2023-04-19T04:39:28;12.93;;;7.55;;
52322;SDS011;38263;52.920;6.238;2023-04-19T04:41:54;11.32;;;6.60;;
52322;SDS011;38263;52.920;6.238;2023-04-19T04:44:22;11.18;;;7.47;;
52322;SDS011;38263;52.920;6.238;2023-04-19T04:46:47;11.35;;;6.68;;
52322;SDS011;38263;52.920;6.238;2023-04-19T04:49:13;15.88;;;7.30;;
52322;SDS011;38263;52.920;6.238;2023-04-19T04:51:39;10.77;;;6.97;;
52322;SDS011;38263;52.920;6.238;2023-04-19T04:54:05;12.20;;;6.85;;
52322;SDS011;38263;52.920;6.238;2023-04-19T04:56:31;11.20;;;6.80;;
52322;SDS011;38263;52.920;6.238;2023-04-19T04:58:57;14.55;;;6.53;;
52322;SDS011;38263;52.920;6.238;2023-04-19T05:01:23;9.95;;;6.70;;
52322;SDS011;38263;52.920;6.238;2023-04-19T05:03:49;10.90;;;6.45;;
52322;SDS011;38263;52.920;6.238;2023-04-19T05:06:16;9.40;;;5.97;;
52322;SDS011;38263;52.920;6.238;2023-04-19T05:08:41;9.93;;;6.25;;
52322;SDS011;38263;52.920;6.238;2023-04-19T05:11:07;9.02;;;6.65;;
52322;SDS011;38263;52.920;6.238;2023-04-19T05:13:33;10.05;;;5.82;;
52322;SDS011;38263;52.920;6.238;2023-04-19T05:15:59;12.82;;;6.15;;
52322;SDS011;38263;52.920;6.238;2023-04-19T05:18:25;9.48;;;5.97;;
52322;SDS011;38263;52.920;6.238;2023-04-19T05:20:51;12.40;;;6.47;;
52322;SDS011;38263;52.920;6.238;2023-04-19T05:23:17;13.93;;;6.32;;
52322;SDS011;38263;52.920;6.238;2023-04-19T05:25:43;9.80;;;5.38;;
52322;SDS011;38263;52.920;6.238;2023-04-19T05:28:09;10.35;;;5.93;;
52322;SDS011;38263;52.920;6.238;2023-04-19T05:30:35;8.32;;;5.95;;
52322;SDS011;38263;52.920;6.238;2023-04-19T05:33:01;9.82;;;6.15;;
52322;SDS011;38263;52.920;6.238;2023-04-19T05:35:27;7.88;;;5.10;;
52322;SDS011;38263;52.920;6.238;2023-04-19T05:40:38;8.38;;;5.38;;
52322;SDS011;38263;52.920;6.238;2023-04-19T05:43:04;10.15;;;5.43;;
52322;SDS011;38263;52.920;6.238;2023-04-19T05:45:30;10.00;;;5.70;;
52322;SDS011;38263;52.920;6.238;2023-04-19T05:47:56;8.75;;;5.00;;
52322;SDS011;38263;52.920;6.238;2023-04-19T05:50:22;10.23;;;5.60;;
52322;SDS011;38263;52.920;6.238;2023-04-19T05:52:48;7.13;;;5.10;;
52322;SDS011;38263;52.920;6.238;2023-04-19T05:55:14;10.32;;;5.10;;
52322;SDS011;38263;52.920;6.238;2023-04-19T05:57:40;7.70;;;5.10;;
52322;SDS011;38263;52.920;6.238;2023-04-19T06:00:06;11.63;;;6.10;;
52322;SDS011;38263;52.920;6.238;2023-04-19T06:02:33;7.35;;;4.80;;
52322;SDS011;38263;52.920;6.238;2023-04-19T06:04:59;6.53;;;5.22;;
52322;SDS011;38263;52.920;6.238;2023-04-19T06:07:28;7.07;;;5.20;;
52322;SDS011;38263;52.920;6.238;2023-04-19T06:09:55;5.63;;;4.45;;
52322;SDS011;38263;52.920;6.238;2023-04-19T06:12:21;7.18;;;4.75;;
52322;SDS011;38263;52.920;6.238;2023-04-19T06:14:46;5.38;;;4.63;;
52322;SDS011;38263;52.920;6.238;2023-04-19T06:17:12;7.07;;;4.65;;
52322;SDS011;38263;52.920;6.238;2023-04-19T06:19:40;12.20;;;4.20;;
52322;SDS011;38263;52.920;6.238;2023-04-19T06:22:06;5.13;;;3.90;;
52322;SDS011;38263;52.920;6.238;2023-04-19T06:24:32;7.07;;;4.00;;
52322;SDS011;38263;52.920;6.238;2023-04-19T06:26:58;5.70;;;4.03;;
52322;SDS011;38263;52.920;6.238;2023-04-19T06:29:24;6.75;;;3.72;;
52322;SDS011;38263;52.920;6.238;2023-04-19T06:31:50;7.80;;;3.90;;
52322;SDS011;38263;52.920;6.238;2023-04-19T06:34:16;4.88;;;3.33;;
52322;SDS011;38263;52.920;6.238;2023-04-19T06:36:41;4.55;;;3.38;;
52322;SDS011;38263;52.920;6.238;2023-04-19T06:39:07;6.30;;;3.75;;
52322;SDS011;38263;52.920;6.238;2023-04-19T06:41:33;5.78;;;3.35;;
52322;SDS011;38263;52.920;6.238;2023-04-19T06:43:59;7.70;;;3.75;;
52322;SDS011;38263;52.920;6.238;2023-04-19T06:46:25;4.70;;;3.22;;
52322;SDS011;38263;52.920;6.238;2023-04-19T06:48:51;4.80;;;2.85;;
52322;SDS011;38263;52.920;6.238;2023-04-19T06:51:17;4.30;;;3.35;;
52322;SDS011;38263;52.920;6.238;2023-04-19T06:53:42;3.67;;;2.78;;
52322;SDS011;38263;52.920;6.238;2023-04-19T06:56:08;5.80;;;3.28;;
52322;SDS011;38263;52.920;6.238;2023-04-19T06:58:35;4.57;;;2.88;;
52322;SDS011;38263;52.920;6.238;2023-04-19T07:01:01;5.05;;;2.97;;
52322;SDS011;38263;52.920;6.238;2023-04-19T07:03:28;3.97;;;2.80;;
52322;SDS011;38263;52.920;6.238;2023-04-19T07:05:53;5.03;;;2.70;;
52322;SDS011;38263;52.920;6.238;2023-04-19T07:08:20;9.13;;;3.33;;
52322;SDS011;38263;52.920;6.238;2023-04-19T07:10:47;4.20;;;2.47;;
52322;SDS011;38263;52.920;6.238;2023-04-19T07:13:12;6.90;;;2.90;;
52322;SDS011;38263;52.920;6.238;2023-04-19T07:15:38;5.55;;;2.60;;
52322;SDS011;38263;52.920;6.238;2023-04-19T07:18:04;4.97;;;2.58;;
52322;SDS011;38263;52.920;6.238;2023-04-19T07:20:30;6.55;;;2.50;;
52322;SDS011;38263;52.920;6.238;2023-04-19T07:22:59;5.40;;;2.45;;
52322;SDS011;38263;52.920;6.238;2023-04-19T07:25:25;4.03;;;2.20;;
52322;SDS011;38263;52.920;6.238;2023-04-19T07:27:51;7.10;;;2.80;;
52322;SDS011;38263;52.920;6.238;2023-04-19T07:30:18;6.43;;;2.55;;
52322;SDS011;38263;52.920;6.238;2023-04-19T07:32:44;2.53;;;1.88;;
52322;SDS011;38263;52.920;6.238;2023-04-19T07:35:10;4.22;;;2.50;;
52322;SDS011;38263;52.920;6.238;2023-04-19T07:37:36;4.70;;;2.75;;
52322;SDS011;38263;52.920;6.238;2023-04-19T07:40:02;3.97;;;2.42;;
52322;SDS011;38263;52.920;6.238;2023-04-19T07:42:29;4.75;;;2.60;;
52322;SDS011;38263;52.920;6.238;2023-04-19T07:44:55;4.25;;;2.53;;
52322;SDS011;38263;52.920;6.238;2023-04-19T07:47:21;2.10;;;1.50;;
52322;SDS011;38263;52.920;6.238;2023-04-19T07:49:50;4.53;;;2.25;;
52322;SDS011;38263;52.920;6.238;2023-04-19T07:52:16;2.85;;;2.17;;
52322;SDS011;38263;52.920;6.238;2023-04-19T07:54:42;6.38;;;2.47;;
52322;SDS011;38263;52.920;6.238;2023-04-19T07:57:08;5.40;;;2.53;;
52322;SDS011;38263;52.920;6.238;2023-04-19T07:59:34;4.78;;;2.22;;
52322;SDS011;38263;52.920;6.238;2023-04-19T08:02:00;4.82;;;2.40;;
52322;SDS011;38263;52.920;6.238;2023-04-19T08:04:26;3.88;;;2.15;;
52322;SDS011;38263;52.920;6.238;2023-04-19T08:06:52;2.67;;;2.03;;
52322;SDS011;38263;52.920;6.238;2023-04-19T08:09:18;2.70;;;2.50;;
52322;SDS011;38263;52.920;6.238;2023-04-19T08:11:43;6.13;;;2.53;;
52322;SDS011;38263;52.920;6.238;2023-04-19T08:14:09;5.15;;;2.47;;
52322;SDS011;38263;52.920;6.238;2023-04-19T08:16:36;5.88;;;3.03;;
52322;SDS011;38263;52.920;6.238;2023-04-19T08:21:38;4.55;;;2.95;;
52322;SDS011;38263;52.920;6.238;2023-04-19T08:24:04;5.25;;;2.45;;
52322;SDS011;38263;52.920;6.238;2023-04-19T08:26:30;3.20;;;2.30;;
52322;SDS011;38263;52.920;6.238;2023-04-19T08:28:56;6.63;;;2.80;;
52322;SDS011;38263;52.920;6.238;2023-04-19T08:31:22;4.25;;;2.83;;
52322;SDS011;38263;52.920;6.238;2023-04-19T08:33:47;4.80;;;2.78;;
52322;SDS011;38263;52.920;6.238;2023-04-19T08:36:13;5.00;;;2.75;;
52322;SDS011;38263;52.920;6.238;2023-04-19T08:38:40;5.63;;;3.42;;
52322;SDS011;38263;52.920;6.238;2023-04-19T08:41:06;5.43;;;3.17;;
52322;SDS011;38263;52.920;6.238;2023-04-19T08:43:35;4.43;;;2.88;;
52322;SDS011;38263;52.920;6.238;2023-04-19T08:46:01;7.82;;;3.10;;
52322;SDS011;38263;52.920;6.238;2023-04-19T08:48:28;4.03;;;2.63;;
52322;SDS011;38263;52.920;6.238;2023-04-19T08:50:55;5.13;;;2.92;;
52322;SDS011;38263;52.920;6.238;2023-04-19T08:53:23;4.47;;;2.53;;
52322;SDS011;38263;52.920;6.238;2023-04-19T08:55:52;4.43;;;2.60;;
52322;SDS011;38263;52.920;6.238;2023-04-19T08:58:23;4.70;;;2.63;;
52322;SDS011;38263;52.920;6.238;2023-04-19T09:00:50;3.75;;;2.30;;
52322;SDS011;38263;52.920;6.238;2023-04-19T09:03:16;3.67;;;2.60;;
52322;SDS011;38263;52.920;6.238;2023-04-19T09:05:41;9.50;;;2.47;;
52322;SDS011;38263;52.920;6.238;2023-04-19T09:08:26;5.60;;;2.20;;
52322;SDS011;38263;52.920;6.238;2023-04-19T09:10:53;4.68;;;2.40;;
52322;SDS011;38263;52.920;6.238;2023-04-19T09:13:19;3.95;;;2.60;;
52322;SDS011;38263;52.920;6.238;2023-04-19T09:15:45;7.00;;;2.22;;
52322;SDS011;38263;52.920;6.238;2023-04-19T09:18:11;3.72;;;2.22;;
52322;SDS011;38263;52.920;6.238;2023-04-19T09:20:41;3.33;;;2.30;;
52322;SDS011;38263;52.920;6.238;2023-04-19T09:23:09;2.88;;;2.08;;
52322;SDS011;38263;52.920;6.238;2023-04-19T09:26:19;3.58;;;2.05;;
52322;SDS011;38263;52.920;6.238;2023-04-19T09:28:29;5.97;;;2.38;;
52322;SDS011;38263;52.920;6.238;2023-04-19T09:30:55;2.97;;;2.10;;
52322;SDS011;38263;52.920;6.238;2023-04-19T09:33:35;4.40;;;1.90;;
52322;SDS011;38263;52.920;6.238;2023-04-19T09:36:03;2.88;;;2.10;;
52322;SDS011;38263;52.920;6.238;2023-04-19T09:38:29;3.65;;;1.88;;
52322;SDS011;38263;52.920;6.238;2023-04-19T09:41:04;3.08;;;1.73;;
52322;SDS011;38263;52.920;6.238;2023-04-19T09:43:31;2.80;;;1.73;;
52322;SDS011;38263;52.920;6.238;2023-04-19T09:45:57;6.28;;;2.10;;
52322;SDS011;38263;52.920;6.238;2023-04-19T09:48:23;3.15;;;1.60;;
52322;SDS011;38263;52.920;6.238;2023-04-19T09:50:50;2.60;;;2.00;;
52322;SDS011;38263;52.920;6.238;2023-04-19T09:53:16;6.13;;;2.25;;
52322;SDS011;38263;52.920;6.238;2023-04-19T09:55:43;3.20;;;2.08;;
52322;SDS011;38263;52.920;6.238;2023-04-19T09:58:08;3.13;;;2.40;;
52322;SDS011;38263;52.920;6.238;2023-04-19T10:00:34;2.92;;;1.42;;
52322;SDS011;38263;52.920;6.238;2023-04-19T10:03:00;2.85;;;2.08;;
52322;SDS011;38263;52.920;6.238;2023-04-19T10:05:27;4.50;;;2.42;;
52322;SDS011;38263;52.920;6.238;2023-04-19T10:07:53;3.17;;;2.13;;
52322;SDS011;38263;52.920;6.238;2023-04-19T10:10:23;2.55;;;1.70;;
52322;SDS011;38263;52.920;6.238;2023-04-19T10:12:50;3.30;;;1.60;;
52322;SDS011;38263;52.920;6.238;2023-04-19T10:15:18;3.30;;;1.80;;
52322;SDS011;38263;52.920;6.238;2023-04-19T10:17:46;2.72;;;1.35;;
52322;SDS011;38263;52.920;6.238;2023-04-19T10:20:16;5.03;;;1.52;;
52322;SDS011;38263;52.920;6.238;2023-04-19T10:22:47;3.60;;;2.20;;
52322;SDS011;38263;52.920;6.238;2023-04-19T10:25:14;2.55;;;1.55;;
52322;SDS011;38263;52.920;6.238;2023-04-19T10:27:44;3.47;;;1.65;;
52322;SDS011;38263;52.920;6.238;2023-04-19T10:30:17;3.55;;;1.70;;
52322;SDS011;38263;52.920;6.238;2023-04-19T10:32:46;2.77;;;1.67;;
52322;SDS011;38263;52.920;6.238;2023-04-19T10:45:37;3.05;;;1.50;;
52322;SDS011;38263;52.920;6.238;2023-04-19T10:48:03;2.85;;;1.60;;
52322;SDS011;38263;52.920;6.238;2023-04-19T10:50:29;4.85;;;1.65;;
52322;SDS011;38263;52.920;6.238;2023-04-19T10:52:56;3.92;;;1.30;;
52322;SDS011;38263;52.920;6.238;2023-04-19T10:55:22;4.05;;;1.60;;
52322;SDS011;38263;52.920;6.238;2023-04-19T10:58:04;4.82;;;1.60;;
52322;SDS011;38263;52.920;6.238;2023-04-19T11:00:31;2.63;;;1.02;;
52322;SDS011;38263;52.920;6.238;2023-04-19T11:03:49;2.88;;;1.50;;
52322;SDS011;38263;52.920;6.238;2023-04-19T11:06:14;1.92;;;1.50;;
52322;SDS011;38263;52.920;6.238;2023-04-19T11:08:43;1.85;;;1.30;;
52322;SDS011;38263;52.920;6.238;2023-04-19T11:11:09;6.47;;;1.55;;
52322;SDS011;38263;52.920;6.238;2023-04-19T11:13:35;5.00;;;1.48;;
52322;SDS011;38263;52.920;6.238;2023-04-19T11:16:06;1.83;;;1.50;;
52322;SDS011;38263;52.920;6.238;2023-04-19T11:18:32;2.50;;;1.80;;
52322;SDS011;38263;52.920;6.238;2023-04-19T11:20:58;2.47;;;1.58;;
52322;SDS011;38263;52.920;6.238;2023-04-19T11:23:25;6.85;;;1.13;;
52322;SDS011;38263;52.920;6.238;2023-04-19T11:25:51;5.63;;;1.70;;
52322;SDS011;38263;52.920;6.238;2023-04-19T11:28:17;2.70;;;1.20;;
52322;SDS011;38263;52.920;6.238;2023-04-19T11:30:45;3.55;;;1.42;;
52322;SDS011;38263;52.920;6.238;2023-04-19T11:33:12;9.73;;;1.48;;
52322;SDS011;38263;52.920;6.238;2023-04-19T11:35:37;2.95;;;1.30;;
52322;SDS011;38263;52.920;6.238;2023-04-19T11:38:03;2.45;;;1.73;;
52322;SDS011;38263;52.920;6.238;2023-04-19T11:40:29;6.00;;;1.50;;
52322;SDS011;38263;52.920;6.238;2023-04-19T11:42:57;1.92;;;1.48;;
52322;SDS011;38263;52.920;6.238;2023-04-19T11:47:54;5.05;;;1.40;;
52322;SDS011;38263;52.920;6.238;2023-04-19T11:52:57;2.03;;;1.38;;
52322;SDS011;38263;52.920;6.238;2023-04-19T11:55:23;3.70;;;1.70;;
52322;SDS011;38263;52.920;6.238;2023-04-19T11:57:49;2.28;;;1.48;;
52322;SDS011;38263;52.920;6.238;2023-04-19T12:00:15;1.85;;;1.45;;
52322;SDS011;38263;52.920;6.238;2023-04-19T12:02:42;1.58;;;1.10;;
52322;SDS011;38263;52.920;6.238;2023-04-19T12:05:09;3.97;;;1.30;;
52322;SDS011;38263;52.920;6.238;2023-04-19T12:10:23;4.40;;;1.40;;
52322;SDS011;38263;52.920;6.238;2023-04-19T12:12:49;2.95;;;1.48;;
52322;SDS011;38263;52.920;6.238;2023-04-19T12:15:15;2.08;;;1.30;;
52322;SDS011;38263;52.920;6.238;2023-04-19T12:17:57;3.60;;;1.90;;
52322;SDS011;38263;52.920;6.238;2023-04-19T12:22:58;2.13;;;1.77;;
52322;SDS011;38263;52.920;6.238;2023-04-19T12:25:32;2.90;;;1.83;;
52322;SDS011;38263;52.920;6.238;2023-04-19T12:28:02;8.35;;;2.28;;
52322;SDS011;38263;52.920;6.238;2023-04-19T12:30:28;3.70;;;2.38;;
52322;SDS011;38263;52.920;6.238;2023-04-19T12:32:54;4.97;;;2.00;;
52322;SDS011;38263;52.920;6.238;2023-04-19T12:35:23;6.18;;;2.15;;
52322;SDS011;38263;52.920;6.238;2023-04-19T12:37:51;5.75;;;2.50;;
52322;SDS011;38263;52.920;6.238;2023-04-19T12:40:21;2.78;;;2.05;;
52322;SDS011;38263;52.920;6.238;2023-04-19T12:42:47;3.15;;;2.63;;
52322;SDS011;38263;52.920;6.238;2023-04-19T12:45:13;7.95;;;2.22;;
52322;SDS011;38263;52.920;6.238;2023-04-19T12:47:39;3.28;;;2.33;;
52322;SDS011;38263;52.920;6.238;2023-04-19T12:50:06;5.53;;;2.45;;
52322;SDS011;38263;52.920;6.238;2023-04-19T12:52:32;4.38;;;2.83;;
52322;SDS011;38263;52.920;6.238;2023-04-19T12:54:58;4.88;;;2.35;;
52322;SDS011;38263;52.920;6.238;2023-04-19T12:57:24;2.85;;;2.10;;
52322;SDS011;38263;52.920;6.238;2023-04-19T12:59:50;5.95;;;2.50;;
52322;SDS011;38263;52.920;6.238;2023-04-19T13:02:16;6.45;;;2.72;;
52322;SDS011;38263;52.920;6.238;2023-04-19T13:04:42;5.25;;;2.78;;
52322;SDS011;38263;52.920;6.238;2023-04-19T13:07:08;4.32;;;2.25;;
52322;SDS011;38263;52.920;6.238;2023-04-19T13:09:33;5.32;;;2.40;;
52322;SDS011;38263;52.920;6.238;2023-04-19T13:11:59;7.43;;;2.38;;
52322;SDS011;38263;52.920;6.238;2023-04-19T13:14:25;5.00;;;2.20;;
52322;SDS011;38263;52.920;6.238;2023-04-19T13:16:52;4.57;;;2.30;;
52322;SDS011;38263;52.920;6.238;2023-04-19T13:19:18;3.75;;;2.53;;
52322;SDS011;38263;52.920;6.238;2023-04-19T13:21:44;4.50;;;2.60;;
52322;SDS011;38263;52.920;6.238;2023-04-19T13:24:10;3.70;;;2.67;;
52322;SDS011;38263;52.920;6.238;2023-04-19T13:26:36;3.85;;;2.28;;
52322;SDS011;38263;52.920;6.238;2023-04-19T13:29:02;2.88;;;1.98;;
52322;SDS011;38263;52.920;6.238;2023-04-19T13:31:28;5.40;;;2.47;;
52322;SDS011;38263;52.920;6.238;2023-04-19T13:33:54;4.00;;;2.53;;
52322;SDS011;38263;52.920;6.238;2023-04-19T13:36:21;4.25;;;2.28;;
52322;SDS011;38263;52.920;6.238;2023-04-19T13:38:47;3.17;;;1.95;;
52322;SDS011;38263;52.920;6.238;2023-04-19T13:41:13;5.50;;;2.30;;
52322;SDS011;38263;52.920;6.238;2023-04-19T13:43:39;4.63;;;2.67;;
52322;SDS011;38263;52.920;6.238;2023-04-19T13:46:05;2.85;;;2.40;;
52322;SDS011;38263;52.920;6.238;2023-04-19T13:48:30;3.60;;;2.65;;
52322;SDS011;38263;52.920;6.238;2023-04-19T13:50:57;6.78;;;2.30;;
52322;SDS011;38263;52.920;6.238;2023-04-19T13:53:24;2.60;;;2.10;;
52322;SDS011;38263;52.920;6.238;2023-04-19T13:55:50;5.32;;;2.13;;
52322;SDS011;38263;52.920;6.238;2023-04-19T13:58:17;5.85;;;2.60;;
52322;SDS011;38263;52.920;6.238;2023-04-19T14:00:43;3.72;;;2.40;;
52322;SDS011;38263;52.920;6.238;2023-04-19T14:03:09;3.70;;;2.88;;
52322;SDS011;38263;52.920;6.238;2023-04-19T14:05:35;9.45;;;3.25;;
52322;SDS011;38263;52.920;6.238;2023-04-19T14:08:01;5.70;;;2.72;;
52322;SDS011;38263;52.920;6.238;2023-04-19T14:10:27;6.07;;;2.67;;
52322;SDS011;38263;52.920;6.238;2023-04-19T14:12:53;7.63;;;4.28;;
52322;SDS011;38263;52.920;6.238;2023-04-19T14:15:19;5.13;;;2.58;;
52322;SDS011;38263;52.920;6.238;2023-04-19T14:17:45;3.50;;;2.22;;
52322;SDS011;38263;52.920;6.238;2023-04-19T14:20:11;11.68;;;2.53;;
52322;SDS011;38263;52.920;6.238;2023-04-19T14:22:37;6.90;;;2.83;;
52322;SDS011;38263;52.920;6.238;2023-04-19T14:25:04;3.47;;;2.30;;
52322;SDS011;38263;52.920;6.238;2023-04-19T14:27:30;5.00;;;2.78;;
52322;SDS011;38263;52.920;6.238;2023-04-19T14:29:56;4.35;;;2.97;;
52322;SDS011;38263;52.920;6.238;2023-04-19T14:32:22;5.43;;;2.72;;
52322;SDS011;38263;52.920;6.238;2023-04-19T14:34:48;3.75;;;2.63;;
52322;SDS011;38263;52.920;6.238;2023-04-19T14:37:14;5.53;;;2.83;;
52322;SDS011;38263;52.920;6.238;2023-04-19T14:39:40;6.05;;;2.97;;
52322;SDS011;38263;52.920;6.238;2023-04-19T14:42:05;4.35;;;2.90;;
52322;SDS011;38263;52.920;6.238;2023-04-19T14:44:31;7.70;;;3.60;;
52322;SDS011;38263;52.920;6.238;2023-04-19T14:46:57;6.25;;;3.00;;
52322;SDS011;38263;52.920;6.238;2023-04-19T14:49:23;5.03;;;2.67;;
52322;SDS011;38263;52.920;6.238;2023-04-19T14:51:50;7.03;;;3.00;;
52322;SDS011;38263;52.920;6.238;2023-04-19T14:54:16;5.32;;;3.28;;
52322;SDS011;38263;52.920;6.238;2023-04-19T14:56:42;8.65;;;3.05;;
52322;SDS011;38263;52.920;6.238;2023-04-19T14:59:08;5.07;;;3.40;;
52322;SDS011;38263;52.920;6.238;2023-04-19T15:01:34;6.45;;;3.58;;
52322;SDS011;38263;52.920;6.238;2023-04-19T15:04:00;5.72;;;3.28;;
52322;SDS011;38263;52.920;6.238;2023-04-19T15:06:25;6.78;;;3.42;;